sensor_id;sensor_type;location;lat;lon;timestamp;pressure;altitude;pressure_sealevel;temperature;humidity
71907;BME280;59781;52.090;5.030;2022-07-23T00:00:08;101979.69;;;15.12;83.97
71907;BME280;59781;52.090;5.030;2022-07-23T00:03:07;101980.50;;;15.29;83.37
71907;BME280;59781;52.090;5.030;2022-07-23T00:05:53;101975.84;;;15.54;82.02
71907;BME280;59781;52.090;5.030;2022-07-23T00:16:54;101972.66;;;15.34;83.16
71907;BME280;59781;52.090;5.030;2022-07-23T00:20:37;101975.91;;;15.37;83.52
71907;BME280;59781;52.090;5.030;2022-07-23T00:23:02;101973.41;;;15.11;84.31
71907;BME280;59781;52.090;5.030;2022-07-23T04:34:32;101955.94;;;13.41;99.09
71907;BME280;59781;52.090;5.030;2022-07-23T04:37:49;101966.28;;;13.46;99.11
71907;BME280;59781;52.090;5.030;2022-07-23T04:48:55;101964.03;;;13.84;96.95
71907;BME280;59781;52.090;5.030;2022-07-23T05:04:15;101970.63;;;14.56;93.13
71907;BME280;59781;52.090;5.030;2022-07-23T05:07:01;101961.63;;;14.80;91.53
71907;BME280;59781;52.090;5.030;2022-07-23T05:10:43;101966.97;;;15.04;90.10
71907;BME280;59781;52.090;5.030;2022-07-23T05:14:00;101965.63;;;15.16;89.48
71907;BME280;59781;52.090;5.030;2022-07-23T05:16:26;101965.22;;;15.36;87.72
71907;BME280;59781;52.090;5.030;2022-07-23T05:18:56;101959.88;;;15.50;86.72
71907;BME280;59781;52.090;5.030;2022-07-23T05:47:50;101982.38;;;18.66;69.21
71907;BME280;59781;52.090;5.030;2022-07-23T05:50:50;101987.59;;;19.51;66.77
71907;BME280;59781;52.090;5.030;2022-07-23T05:54:57;101989.81;;;19.06;66.67
71907;BME280;59781;52.090;5.030;2022-07-23T05:59:01;101986.44;;;18.98;66.86
71907;BME280;59781;52.090;5.030;2022-07-23T06:05:20;101982.50;;;19.83;65.29
71907;BME280;59781;52.090;5.030;2022-07-23T06:08:38;101973.38;;;20.30;62.86
71907;BME280;59781;52.090;5.030;2022-07-23T06:15:44;101973.81;;;21.19;58.49
71907;BME280;59781;52.090;5.030;2022-07-23T06:18:10;101974.25;;;21.30;58.35
71907;BME280;59781;52.090;5.030;2022-07-23T06:20:38;101981.25;;;20.79;59.73
71907;BME280;59781;52.090;5.030;2022-07-23T06:23:04;101978.38;;;21.59;57.30
71907;BME280;59781;52.090;5.030;2022-07-23T06:33:25;101982.09;;;21.77;56.02
71907;BME280;59781;52.090;5.030;2022-07-23T06:44:54;101986.50;;;21.14;56.35
71907;BME280;59781;52.090;5.030;2022-07-23T07:39:00;102010.94;;;22.38;50.13
71907;BME280;59781;52.090;5.030;2022-07-23T07:41:48;102015.69;;;21.66;52.38
71907;BME280;59781;52.090;5.030;2022-07-23T07:45:34;102011.31;;;22.03;53.95
71907;BME280;59781;52.090;5.030;2022-07-23T07:48:00;102010.81;;;21.68;53.55
71907;BME280;59781;52.090;5.030;2022-07-23T07:54:55;102013.84;;;22.05;50.95
71907;BME280;59781;52.090;5.030;2022-07-23T07:57:57;102014.84;;;23.12;49.14
71907;BME280;59781;52.090;5.030;2022-07-23T08:01:28;102025.38;;;22.58;50.14
71907;BME280;59781;52.090;5.030;2022-07-23T08:05:48;102013.25;;;22.98;48.58
71907;BME280;59781;52.090;5.030;2022-07-23T08:09:29;102024.72;;;22.63;50.37
71907;BME280;59781;52.090;5.030;2022-07-23T08:13:54;102020.88;;;22.96;48.79
71907;BME280;59781;52.090;5.030;2022-07-23T08:16:59;102030.25;;;23.93;48.68
71907;BME280;59781;52.090;5.030;2022-07-23T08:21:03;102034.06;;;23.12;49.01
71907;BME280;59781;52.090;5.030;2022-07-23T08:23:34;102029.47;;;24.04;44.51
71907;BME280;59781;52.090;5.030;2022-07-23T08:26:00;102029.31;;;22.38;49.61
71907;BME280;59781;52.090;5.030;2022-07-23T08:28:59;102034.00;;;24.28;43.78
71907;BME280;59781;52.090;5.030;2022-07-23T08:31:48;102028.56;;;23.92;46.70
71907;BME280;59781;52.090;5.030;2022-07-23T08:35:13;102029.13;;;24.30;46.02
71907;BME280;59781;52.090;5.030;2022-07-23T09:11:18;102035.91;;;26.50;38.90
71907;BME280;59781;52.090;5.030;2022-07-23T09:13:51;102035.19;;;26.15;39.45
71907;BME280;59781;52.090;5.030;2022-07-23T09:17:17;102038.84;;;26.32;41.38
71907;BME280;59781;52.090;5.030;2022-07-23T09:23:58;102039.25;;;27.14;39.66
71907;BME280;59781;52.090;5.030;2022-07-23T09:31:00;102033.91;;;26.06;39.54
71907;BME280;59781;52.090;5.030;2022-07-23T09:33:33;102040.63;;;26.10;38.83
71907;BME280;59781;52.090;5.030;2022-07-23T09:36:48;102039.72;;;26.21;41.61
71907;BME280;59781;52.090;5.030;2022-07-23T09:39:24;102055.50;;;23.03;46.26
71907;BME280;59781;52.090;5.030;2022-07-23T09:41:55;102047.09;;;22.60;47.27
71907;BME280;59781;52.090;5.030;2022-07-23T09:44:59;102058.06;;;22.98;46.24
71907;BME280;59781;52.090;5.030;2022-07-23T09:48:17;102048.41;;;25.37;40.40
71907;BME280;59781;52.090;5.030;2022-07-23T09:51:23;102053.31;;;25.70;42.44
71907;BME280;59781;52.090;5.030;2022-07-23T09:55:04;102047.38;;;27.04;41.52
71907;BME280;59781;52.090;5.030;2022-07-23T10:02:34;102052.88;;;26.02;40.12
71907;BME280;59781;52.090;5.030;2022-07-23T10:06:32;102055.22;;;26.96;39.05
71907;BME280;59781;52.090;5.030;2022-07-23T10:13:50;102056.22;;;28.00;38.16
71907;BME280;59781;52.090;5.030;2022-07-23T10:16:47;102046.06;;;27.46;39.58
71907;BME280;59781;52.090;5.030;2022-07-23T10:19:13;102037.88;;;27.34;37.91
71907;BME280;59781;52.090;5.030;2022-07-23T10:21:49;102039.88;;;27.22;36.31
71907;BME280;59781;52.090;5.030;2022-07-23T10:24:52;102048.69;;;27.96;38.52
71907;BME280;59781;52.090;5.030;2022-07-23T10:30:16;102043.75;;;27.76;38.20
71907;BME280;59781;52.090;5.030;2022-07-23T10:33:17;102040.28;;;27.86;38.23
71907;BME280;59781;52.090;5.030;2022-07-23T10:39:22;102039.84;;;28.43;36.83
71907;BME280;59781;52.090;5.030;2022-07-23T10:42:16;102039.41;;;28.88;37.11
71907;BME280;59781;52.090;5.030;2022-07-23T10:44:45;102047.72;;;28.29;37.51
71907;BME280;59781;52.090;5.030;2022-07-23T10:47:27;102031.56;;;27.38;38.49
71907;BME280;59781;52.090;5.030;2022-07-23T10:50:29;102030.28;;;26.62;37.74
71907;BME280;59781;52.090;5.030;2022-07-23T10:55:50;102027.16;;;26.87;37.30
71907;BME280;59781;52.090;5.030;2022-07-23T10:58:19;102027.31;;;27.69;34.70
71907;BME280;59781;52.090;5.030;2022-07-23T11:01:37;102035.44;;;27.76;37.57
71907;BME280;59781;52.090;5.030;2022-07-23T11:04:51;102015.53;;;29.19;35.31
71907;BME280;59781;52.090;5.030;2022-07-23T11:07:17;102029.19;;;29.26;37.47
71907;BME280;59781;52.090;5.030;2022-07-23T11:13:31;102024.84;;;28.71;37.45
71907;BME280;59781;52.090;5.030;2022-07-23T11:16:55;102021.09;;;29.61;34.66
71907;BME280;59781;52.090;5.030;2022-07-23T11:19:20;102027.38;;;29.04;35.88
71907;BME280;59781;52.090;5.030;2022-07-23T11:22:09;102030.16;;;26.85;39.69
71907;BME280;59781;52.090;5.030;2022-07-23T11:32:24;102031.06;;;29.57;35.55
71907;BME280;59781;52.090;5.030;2022-07-23T11:52:29;102041.31;;;28.82;34.92
71907;BME280;59781;52.090;5.030;2022-07-23T11:59:06;102032.47;;;28.85;35.13
71907;BME280;59781;52.090;5.030;2022-07-23T12:23:09;102005.03;;;27.81;34.95
71907;BME280;59781;52.090;5.030;2022-07-23T12:25:40;102002.41;;;29.04;33.99
71907;BME280;59781;52.090;5.030;2022-07-23T12:39:54;101997.88;;;29.83;33.64
71907;BME280;59781;52.090;5.030;2022-07-23T12:44:14;101994.44;;;29.18;36.11
71907;BME280;59781;52.090;5.030;2022-07-23T12:48:50;101996.47;;;29.85;33.64
71907;BME280;59781;52.090;5.030;2022-07-23T12:57:11;102006.38;;;29.19;36.01
71907;BME280;59781;52.090;5.030;2022-07-23T13:00:20;101999.56;;;28.94;34.28
71907;BME280;59781;52.090;5.030;2022-07-23T13:03:19;102001.03;;;30.17;32.60
71907;BME280;59781;52.090;5.030;2022-07-23T13:05:46;102001.63;;;28.77;33.76
71907;BME280;59781;52.090;5.030;2022-07-23T13:08:12;101996.13;;;29.61;31.53
71907;BME280;59781;52.090;5.030;2022-07-23T13:10:38;101994.22;;;29.25;34.34
71907;BME280;59781;52.090;5.030;2022-07-23T13:13:29;101989.50;;;29.25;31.73
71907;BME280;59781;52.090;5.030;2022-07-23T13:16:36;101982.91;;;29.31;31.49
71907;BME280;59781;52.090;5.030;2022-07-23T13:20:28;101989.28;;;28.31;33.37
71907;BME280;59781;52.090;5.030;2022-07-23T13:22:54;101982.69;;;27.88;33.53
71907;BME280;59781;52.090;5.030;2022-07-23T13:25:46;101993.56;;;28.43;33.71
71907;BME280;59781;52.090;5.030;2022-07-23T13:28:38;101996.91;;;26.97;36.41
71907;BME280;59781;52.090;5.030;2022-07-23T13:31:04;101999.59;;;28.13;33.31
71907;BME280;59781;52.090;5.030;2022-07-23T13:33:30;101997.81;;;28.88;34.78
71907;BME280;59781;52.090;5.030;2022-07-23T13:36:01;101992.00;;;29.22;35.41
71907;BME280;59781;52.090;5.030;2022-07-23T13:38:30;101997.66;;;29.42;36.39
71907;BME280;59781;52.090;5.030;2022-07-23T13:41:13;101988.94;;;28.54;36.71
71907;BME280;59781;52.090;5.030;2022-07-23T13:43:49;101987.75;;;28.77;35.02
71907;BME280;59781;52.090;5.030;2022-07-23T13:46:39;101991.28;;;28.67;35.82
71907;BME280;59781;52.090;5.030;2022-07-23T13:49:10;101990.50;;;28.72;36.25
71907;BME280;59781;52.090;5.030;2022-07-23T13:51:36;101972.50;;;29.11;36.08
71907;BME280;59781;52.090;5.030;2022-07-23T13:54:02;101978.78;;;29.44;34.72
71907;BME280;59781;52.090;5.030;2022-07-23T13:56:29;101974.41;;;29.06;36.73
71907;BME280;59781;52.090;5.030;2022-07-23T13:59:00;101988.63;;;29.20;37.06
71907;BME280;59781;52.090;5.030;2022-07-23T14:01:33;101986.50;;;28.31;36.04
71907;BME280;59781;52.090;5.030;2022-07-23T14:04:01;101985.53;;;28.79;35.89
71907;BME280;59781;52.090;5.030;2022-07-23T14:06:27;101976.84;;;28.97;35.26
71907;BME280;59781;52.090;5.030;2022-07-23T14:08:52;101975.72;;;29.40;34.22
71907;BME280;59781;52.090;5.030;2022-07-23T14:11:18;101984.91;;;28.67;34.63
71907;BME280;59781;52.090;5.030;2022-07-23T14:14:07;101980.84;;;28.47;36.97
71907;BME280;59781;52.090;5.030;2022-07-23T14:16:45;101976.38;;;28.78;36.55
71907;BME280;59781;52.090;5.030;2022-07-23T14:19:19;101972.13;;;28.66;34.76
71907;BME280;59781;52.090;5.030;2022-07-23T14:22:14;101975.78;;;28.12;37.09
71907;BME280;59781;52.090;5.030;2022-07-23T14:24:41;101980.56;;;28.44;38.41
71907;BME280;59781;52.090;5.030;2022-07-23T14:27:06;101973.63;;;27.70;36.84
71907;BME280;59781;52.090;5.030;2022-07-23T14:29:33;101975.69;;;28.29;36.71
71907;BME280;59781;52.090;5.030;2022-07-23T14:32:00;101969.41;;;27.90;36.28
71907;BME280;59781;52.090;5.030;2022-07-23T14:34:47;101977.25;;;28.47;38.07
71907;BME280;59781;52.090;5.030;2022-07-23T14:37:30;101976.75;;;28.55;35.25
71907;BME280;59781;52.090;5.030;2022-07-23T14:40:53;101972.84;;;27.53;35.84
71907;BME280;59781;52.090;5.030;2022-07-23T14:43:39;101971.75;;;28.52;36.19
71907;BME280;59781;52.090;5.030;2022-07-23T14:46:08;101980.22;;;28.13;37.04
71907;BME280;59781;52.090;5.030;2022-07-23T14:48:36;101976.59;;;27.25;37.55
71907;BME280;59781;52.090;5.030;2022-07-23T14:51:03;101982.84;;;27.37;36.66
71907;BME280;59781;52.090;5.030;2022-07-23T14:53:33;101979.97;;;27.49;39.73
71907;BME280;59781;52.090;5.030;2022-07-23T14:57:00;101980.41;;;27.41;36.62
71907;BME280;59781;52.090;5.030;2022-07-23T15:00:09;101973.44;;;27.00;37.65
71907;BME280;59781;52.090;5.030;2022-07-23T15:02:57;101969.31;;;27.19;39.31
71907;BME280;59781;52.090;5.030;2022-07-23T15:05:44;101977.56;;;27.14;38.35
71907;BME280;59781;52.090;5.030;2022-07-23T15:08:13;101969.19;;;27.31;38.73
71907;BME280;59781;52.090;5.030;2022-07-23T15:10:39;101971.50;;;27.78;38.00
71907;BME280;59781;52.090;5.030;2022-07-23T15:13:05;101972.94;;;27.41;37.83
71907;BME280;59781;52.090;5.030;2022-07-23T15:15:52;101970.31;;;27.95;37.34
71907;BME280;59781;52.090;5.030;2022-07-23T15:19:08;101966.97;;;28.20;38.29
71907;BME280;59781;52.090;5.030;2022-07-23T15:21:50;101961.84;;;27.80;37.71
71907;BME280;59781;52.090;5.030;2022-07-23T15:24:18;101957.78;;;27.88;39.94
71907;BME280;59781;52.090;5.030;2022-07-23T15:26:44;101964.97;;;27.45;38.83
71907;BME280;59781;52.090;5.030;2022-07-23T15:29:09;101954.00;;;27.33;39.12
71907;BME280;59781;52.090;5.030;2022-07-23T15:31:35;101960.84;;;27.26;39.57
71907;BME280;59781;52.090;5.030;2022-07-23T15:34:01;101950.34;;;27.06;39.20
71907;BME280;59781;52.090;5.030;2022-07-23T15:36:27;101958.78;;;27.16;39.53
71907;BME280;59781;52.090;5.030;2022-07-23T15:39:32;101946.97;;;26.87;40.10
71907;BME280;59781;52.090;5.030;2022-07-23T15:42:05;101947.63;;;26.44;40.93
71907;BME280;59781;52.090;5.030;2022-07-23T15:45:02;101952.31;;;26.43;42.72
71907;BME280;59781;52.090;5.030;2022-07-23T15:48:36;101959.28;;;26.63;41.14
71907;BME280;59781;52.090;5.030;2022-07-23T15:51:04;101952.66;;;26.97;41.18
71907;BME280;59781;52.090;5.030;2022-07-23T15:53:53;101952.03;;;26.56;42.66
71907;BME280;59781;52.090;5.030;2022-07-23T15:56:59;101947.59;;;26.55;39.63
71907;BME280;59781;52.090;5.030;2022-07-23T15:59:25;101943.47;;;26.75;40.42
71907;BME280;59781;52.090;5.030;2022-07-23T16:01:51;101951.59;;;26.48;39.86
71907;BME280;59781;52.090;5.030;2022-07-23T16:04:17;101948.59;;;26.21;40.16
71907;BME280;59781;52.090;5.030;2022-07-23T16:06:43;101943.31;;;26.19;40.37
71907;BME280;59781;52.090;5.030;2022-07-23T16:09:08;101938.09;;;26.51;41.26
71907;BME280;59781;52.090;5.030;2022-07-23T16:11:34;101939.59;;;26.42;39.84
71907;BME280;59781;52.090;5.030;2022-07-23T16:14:00;101935.16;;;26.92;39.72
71907;BME280;59781;52.090;5.030;2022-07-23T16:16:26;101928.19;;;26.22;40.45
71907;BME280;59781;52.090;5.030;2022-07-23T16:18:57;101928.84;;;26.29;42.20
71907;BME280;59781;52.090;5.030;2022-07-23T16:21:23;101922.94;;;26.71;41.50
71907;BME280;59781;52.090;5.030;2022-07-23T16:23:50;101917.06;;;26.17;41.77
71907;BME280;59781;52.090;5.030;2022-07-23T16:26:17;101916.63;;;26.08;41.20
71907;BME280;59781;52.090;5.030;2022-07-23T16:28:46;101925.56;;;25.98;42.11
71907;BME280;59781;52.090;5.030;2022-07-23T16:31:13;101927.16;;;26.11;41.73
71907;BME280;59781;52.090;5.030;2022-07-23T16:33:39;101925.09;;;26.18;42.72
71907;BME280;59781;52.090;5.030;2022-07-23T16:36:06;101924.25;;;26.18;41.56
71907;BME280;59781;52.090;5.030;2022-07-23T16:38:34;101921.69;;;25.99;41.75
71907;BME280;59781;52.090;5.030;2022-07-23T16:41:01;101917.97;;;26.06;41.56
71907;BME280;59781;52.090;5.030;2022-07-23T16:43:28;101919.75;;;26.28;43.98
71907;BME280;59781;52.090;5.030;2022-07-23T16:45:56;101912.03;;;25.85;43.27
71907;BME280;59781;52.090;5.030;2022-07-23T16:48:21;101914.53;;;25.46;42.92
71907;BME280;59781;52.090;5.030;2022-07-23T16:50:47;101908.25;;;25.74;45.30
71907;BME280;59781;52.090;5.030;2022-07-23T16:53:13;101915.28;;;25.82;42.00
71907;BME280;59781;52.090;5.030;2022-07-23T16:55:39;101917.34;;;25.35;42.64
71907;BME280;59781;52.090;5.030;2022-07-23T16:58:05;101916.66;;;25.56;43.26
71907;BME280;59781;52.090;5.030;2022-07-23T17:00:31;101912.66;;;25.47;42.45
71907;BME280;59781;52.090;5.030;2022-07-23T17:02:57;101915.19;;;25.25;42.48
71907;BME280;59781;52.090;5.030;2022-07-23T17:05:24;101916.53;;;25.23;44.26
71907;BME280;59781;52.090;5.030;2022-07-23T17:07:51;101920.94;;;25.35;42.49
71907;BME280;59781;52.090;5.030;2022-07-23T17:10:20;101927.19;;;24.96;45.57
71907;BME280;59781;52.090;5.030;2022-07-23T17:12:49;101924.56;;;25.24;44.43
71907;BME280;59781;52.090;5.030;2022-07-23T17:15:19;101927.06;;;25.37;43.10
71907;BME280;59781;52.090;5.030;2022-07-23T17:17:46;101932.47;;;25.32;44.89
71907;BME280;59781;52.090;5.030;2022-07-23T17:20:12;101930.06;;;25.24;43.62
71907;BME280;59781;52.090;5.030;2022-07-23T17:22:39;101931.03;;;25.30;45.55
71907;BME280;59781;52.090;5.030;2022-07-23T17:25:07;101928.41;;;25.23;43.96
71907;BME280;59781;52.090;5.030;2022-07-23T17:27:39;101930.31;;;24.99;44.35
71907;BME280;59781;52.090;5.030;2022-07-23T17:30:07;101938.97;;;25.03;44.13
71907;BME280;59781;52.090;5.030;2022-07-23T17:32:33;101933.63;;;25.36;42.48
71907;BME280;59781;52.090;5.030;2022-07-23T17:34:58;101931.38;;;24.86;45.92
71907;BME280;59781;52.090;5.030;2022-07-23T17:37:24;101925.88;;;25.22;45.26
71907;BME280;59781;52.090;5.030;2022-07-23T17:39:50;101936.69;;;25.11;47.85
71907;BME280;59781;52.090;5.030;2022-07-23T17:42:15;101927.09;;;25.02;46.20
71907;BME280;59781;52.090;5.030;2022-07-23T17:44:41;101932.84;;;24.89;45.82
71907;BME280;59781;52.090;5.030;2022-07-23T17:47:07;101935.25;;;25.09;45.20
71907;BME280;59781;52.090;5.030;2022-07-23T17:49:32;101937.53;;;24.88;48.16
71907;BME280;59781;52.090;5.030;2022-07-23T17:52:04;101938.47;;;25.06;47.91
71907;BME280;59781;52.090;5.030;2022-07-23T17:54:30;101936.53;;;24.95;48.79
71907;BME280;59781;52.090;5.030;2022-07-23T17:56:59;101934.38;;;24.85;49.43
71907;BME280;59781;52.090;5.030;2022-07-23T17:59:25;101931.16;;;24.65;50.54
71907;BME280;59781;52.090;5.030;2022-07-23T18:01:51;101934.13;;;24.51;50.79
71907;BME280;59781;52.090;5.030;2022-07-23T18:04:18;101928.59;;;24.40;51.81
71907;BME280;59781;52.090;5.030;2022-07-23T18:06:45;101928.31;;;24.29;52.01
71907;BME280;59781;52.090;5.030;2022-07-23T18:09:12;101938.91;;;24.14;53.52
71907;BME280;59781;52.090;5.030;2022-07-23T18:11:40;101940.00;;;24.13;53.22
71907;BME280;59781;52.090;5.030;2022-07-23T18:14:08;101944.06;;;24.11;54.44
71907;BME280;59781;52.090;5.030;2022-07-23T18:16:36;101942.25;;;24.04;53.96
71907;BME280;59781;52.090;5.030;2022-07-23T18:19:04;101941.91;;;24.54;51.75
71907;BME280;59781;52.090;5.030;2022-07-23T18:21:33;101937.94;;;24.09;52.94
71907;BME280;59781;52.090;5.030;2022-07-23T18:24:03;101931.78;;;23.95;53.86
71907;BME280;59781;52.090;5.030;2022-07-23T18:26:29;101925.63;;;24.41;51.87
71907;BME280;59781;52.090;5.030;2022-07-23T18:28:54;101922.06;;;24.22;52.51
71907;BME280;59781;52.090;5.030;2022-07-23T18:31:20;101924.97;;;23.97;53.22
71907;BME280;59781;52.090;5.030;2022-07-23T18:33:47;101933.59;;;23.53;55.81
71907;BME280;59781;52.090;5.030;2022-07-23T18:36:13;101938.56;;;23.44;57.63
71907;BME280;59781;52.090;5.030;2022-07-23T18:38:39;101924.59;;;23.45;55.91
71907;BME280;59781;52.090;5.030;2022-07-23T18:41:04;101932.22;;;23.25;57.19
71907;BME280;59781;52.090;5.030;2022-07-23T18:43:30;101928.88;;;23.05;57.76
71907;BME280;59781;52.090;5.030;2022-07-23T18:45:59;101934.72;;;23.08;58.78
71907;BME280;59781;52.090;5.030;2022-07-23T18:48:27;101936.41;;;22.91;58.78
71907;BME280;59781;52.090;5.030;2022-07-23T18:50:53;101934.81;;;22.77;59.62
71907;BME280;59781;52.090;5.030;2022-07-23T18:53:19;101941.19;;;22.71;62.07
71907;BME280;59781;52.090;5.030;2022-07-23T18:55:44;101943.25;;;22.50;63.35
71907;BME280;59781;52.090;5.030;2022-07-23T18:58:10;101944.72;;;22.28;64.08
71907;BME280;59781;52.090;5.030;2022-07-23T19:00:37;101949.00;;;22.17;67.07
71907;BME280;59781;52.090;5.030;2022-07-23T19:05:30;101937.28;;;21.97;67.71
71907;BME280;59781;52.090;5.030;2022-07-23T19:07:56;101941.13;;;21.89;67.45
71907;BME280;59781;52.090;5.030;2022-07-23T19:10:22;101944.53;;;21.85;68.23
71907;BME280;59781;52.090;5.030;2022-07-23T19:12:48;101940.50;;;21.87;67.07
71907;BME280;59781;52.090;5.030;2022-07-23T19:15:14;101937.16;;;21.79;67.51
71907;BME280;59781;52.090;5.030;2022-07-23T19:17:41;101933.00;;;21.69;67.37
71907;BME280;59781;52.090;5.030;2022-07-23T19:20:09;101947.19;;;21.53;68.95
71907;BME280;59781;52.090;5.030;2022-07-23T19:22:36;101940.75;;;21.34;70.19
71907;BME280;59781;52.090;5.030;2022-07-23T19:25:03;101938.84;;;21.35;70.74
71907;BME280;59781;52.090;5.030;2022-07-23T19:27:29;101930.78;;;21.46;71.09
71907;BME280;59781;52.090;5.030;2022-07-23T19:29:55;101930.84;;;21.27;71.28
71907;BME280;59781;52.090;5.030;2022-07-23T19:32:21;101939.25;;;21.18;72.47
71907;BME280;59781;52.090;5.030;2022-07-23T19:34:46;101939.97;;;20.87;79.06
71907;BME280;59781;52.090;5.030;2022-07-23T19:37:12;101944.16;;;20.83;79.88
71907;BME280;59781;52.090;5.030;2022-07-23T19:39:43;101946.28;;;20.68;82.23
71907;BME280;59781;52.090;5.030;2022-07-23T19:42:11;101951.78;;;20.68;85.21
71907;BME280;59781;52.090;5.030;2022-07-23T19:44:38;101954.50;;;20.48;97.38
71907;BME280;59781;52.090;5.030;2022-07-23T19:47:05;101963.72;;;20.27;100.00
71907;BME280;59781;52.090;5.030;2022-07-23T19:49:31;101960.91;;;20.01;97.26
71907;BME280;59781;52.090;5.030;2022-07-23T19:51:58;101968.47;;;19.99;98.98
71907;BME280;59781;52.090;5.030;2022-07-23T19:54:25;101964.72;;;20.13;100.00
71907;BME280;59781;52.090;5.030;2022-07-23T19:56:52;101967.06;;;20.23;97.78
71907;BME280;59781;52.090;5.030;2022-07-23T19:59:18;101963.66;;;20.08;98.75
71907;BME280;59781;52.090;5.030;2022-07-23T20:01:45;101963.84;;;19.99;90.97
71907;BME280;59781;52.090;5.030;2022-07-23T20:04:10;101967.25;;;20.08;85.04
71907;BME280;59781;52.090;5.030;2022-07-23T20:06:36;101975.41;;;20.01;92.68
71907;BME280;59781;52.090;5.030;2022-07-23T20:09:03;101979.19;;;19.87;95.82
71907;BME280;59781;52.090;5.030;2022-07-23T20:11:30;101987.75;;;19.84;96.77
71907;BME280;59781;52.090;5.030;2022-07-23T20:13:57;101977.47;;;19.80;97.72
71907;BME280;59781;52.090;5.030;2022-07-23T20:16:23;101978.50;;;19.79;97.75
71907;BME280;59781;52.090;5.030;2022-07-23T20:18:48;101986.91;;;19.84;97.47
71907;BME280;59781;52.090;5.030;2022-07-23T20:21:14;101985.25;;;19.83;97.37
71907;BME280;59781;52.090;5.030;2022-07-23T20:23:40;101985.84;;;19.71;96.57
71907;BME280;59781;52.090;5.030;2022-07-23T20:26:06;101978.50;;;19.79;97.51
71907;BME280;59781;52.090;5.030;2022-07-23T20:28:31;101982.34;;;19.91;95.18
71907;BME280;59781;52.090;5.030;2022-07-23T20:30:57;101979.09;;;19.74;96.66
71907;BME280;59781;52.090;5.030;2022-07-23T20:33:24;101977.22;;;19.74;95.80
71907;BME280;59781;52.090;5.030;2022-07-23T20:35:50;101971.75;;;19.74;96.69
71907;BME280;59781;52.090;5.030;2022-07-23T20:38:16;101971.75;;;19.74;95.30
71907;BME280;59781;52.090;5.030;2022-07-23T20:40:42;101964.59;;;19.67;95.76
71907;BME280;59781;52.090;5.030;2022-07-23T20:43:08;101971.28;;;19.64;94.80
71907;BME280;59781;52.090;5.030;2022-07-23T20:45:35;101966.38;;;19.53;96.80
71907;BME280;59781;52.090;5.030;2022-07-23T20:48:01;101970.44;;;19.57;95.02
71907;BME280;59781;52.090;5.030;2022-07-23T20:50:27;101967.19;;;19.47;97.19
71907;BME280;59781;52.090;5.030;2022-07-23T20:52:54;101966.22;;;19.61;90.69
71907;BME280;59781;52.090;5.030;2022-07-23T20:55:20;101966.38;;;19.53;94.31
71907;BME280;59781;52.090;5.030;2022-07-23T20:57:46;101960.28;;;19.51;95.62
71907;BME280;59781;52.090;5.030;2022-07-23T21:00:14;101961.28;;;19.43;96.43
71907;BME280;59781;52.090;5.030;2022-07-23T21:02:41;101955.75;;;19.37;96.59
71907;BME280;59781;52.090;5.030;2022-07-23T21:05:08;101956.59;;;19.31;96.97
71907;BME280;59781;52.090;5.030;2022-07-23T21:07:34;101949.41;;;19.23;95.22
71907;BME280;59781;52.090;5.030;2022-07-23T21:10:00;101952.75;;;19.18;96.16
71907;BME280;59781;52.090;5.030;2022-07-23T21:12:26;101954.81;;;19.16;95.06
71907;BME280;59781;52.090;5.030;2022-07-23T21:14:52;101956.06;;;19.14;97.90
71907;BME280;59781;52.090;5.030;2022-07-23T21:17:20;101960.69;;;19.13;97.49
71907;BME280;59781;52.090;5.030;2022-07-23T21:19:45;101964.72;;;19.17;97.54
71907;BME280;59781;52.090;5.030;2022-07-23T21:22:12;101962.16;;;19.16;96.70
71907;BME280;59781;52.090;5.030;2022-07-23T21:24:39;101967.69;;;18.95;96.87
71907;BME280;59781;52.090;5.030;2022-07-23T21:27:05;101961.31;;;18.81;95.90
71907;BME280;59781;52.090;5.030;2022-07-23T21:29:31;101962.97;;;18.82;97.34
71907;BME280;59781;52.090;5.030;2022-07-23T21:31:58;101956.13;;;18.92;95.43
71907;BME280;59781;52.090;5.030;2022-07-23T21:34:24;101956.13;;;18.92;97.08
71907;BME280;59781;52.090;5.030;2022-07-23T21:36:51;101951.78;;;18.70;94.70
71907;BME280;59781;52.090;5.030;2022-07-23T21:39:18;101942.66;;;18.63;94.81
71907;BME280;59781;52.090;5.030;2022-07-23T21:41:44;101944.88;;;18.74;95.46
71907;BME280;59781;52.090;5.030;2022-07-23T21:44:11;101948.00;;;18.71;96.54
71907;BME280;59781;52.090;5.030;2022-07-23T21:46:36;101957.88;;;18.72;97.03
71907;BME280;59781;52.090;5.030;2022-07-23T21:49:03;101947.09;;;18.92;95.49
71907;BME280;59781;52.090;5.030;2022-07-23T21:51:30;101959.19;;;19.45;87.71
71907;BME280;59781;52.090;5.030;2022-07-23T21:53:57;101947.41;;;19.86;86.71
71907;BME280;59781;52.090;5.030;2022-07-23T21:56:23;101952.28;;;19.49;90.73
71907;BME280;59781;52.090;5.030;2022-07-23T21:58:50;101950.72;;;18.99;96.29
71907;BME280;59781;52.090;5.030;2022-07-23T22:01:16;101958.72;;;18.73;95.83
71907;BME280;59781;52.090;5.030;2022-07-23T22:03:42;101961.25;;;19.02;93.30
71907;BME280;59781;52.090;5.030;2022-07-23T22:06:08;101953.75;;;18.83;96.14
71907;BME280;59781;52.090;5.030;2022-07-23T22:08:34;101956.28;;;18.63;96.17
71907;BME280;59781;52.090;5.030;2022-07-23T22:11:00;101950.69;;;18.92;93.74
71907;BME280;59781;52.090;5.030;2022-07-23T22:13:26;101961.31;;;18.59;97.26
71907;BME280;59781;52.090;5.030;2022-07-23T22:15:52;101952.44;;;18.57;97.33
71907;BME280;59781;52.090;5.030;2022-07-23T22:18:17;101953.38;;;18.43;95.33
71907;BME280;59781;52.090;5.030;2022-07-23T22:20:43;101956.88;;;18.37;96.71
71907;BME280;59781;52.090;5.030;2022-07-23T22:23:09;101967.47;;;18.25;96.27
71907;BME280;59781;52.090;5.030;2022-07-23T22:25:35;101962.22;;;18.24;96.08